sensor_id;sensor_type;location;lat;lon;timestamp;pressure;altitude;pressure_sealevel;temperature;humidity
37066;BME280;22981;43.080;25.550;2023-01-15T00:01:25;100285.59;;;3.96;86.94
37066;BME280;22981;43.080;25.550;2023-01-15T00:03:54;100291.23;;;3.97;86.95
37066;BME280;22981;43.080;25.550;2023-01-15T00:06:23;100289.90;;;3.97;86.94
37066;BME280;22981;43.080;25.550;2023-01-15T00:08:51;100284.77;;;3.95;86.96
37066;BME280;22981;43.080;25.550;2023-01-15T00:11:19;100288.74;;;3.95;87.01
37066;BME280;22981;43.080;25.550;2023-01-15T00:13:48;100288.91;;;3.98;87.06
37066;BME280;22981;43.080;25.550;2023-01-15T00:16:20;100299.37;;;3.99;86.98
37066;BME280;22981;43.080;25.550;2023-01-15T00:18:51;100293.24;;;3.99;87.01
37066;BME280;22981;43.080;25.550;2023-01-15T00:21:19;100292.58;;;4.01;86.91
37066;BME280;22981;43.080;25.550;2023-01-15T00:23:47;100298.70;;;4.01;86.81
37066;BME280;22981;43.080;25.550;2023-01-15T00:26:34;100297.87;;;4.01;86.79
37066;BME280;22981;43.080;25.550;2023-01-15T00:29:20;100298.70;;;4.01;86.77
37066;BME280;22981;43.080;25.550;2023-01-15T00:31:56;100295.09;;;4.03;86.80
37066;BME280;22981;43.080;25.550;2023-01-15T00:34:25;100296.74;;;4.04;86.80
37066;BME280;22981;43.080;25.550;2023-01-15T00:36:53;100295.42;;;4.04;86.77
37066;BME280;22981;43.080;25.550;2023-01-15T00:39:21;100293.09;;;4.05;86.82
37066;BME280;22981;43.080;25.550;2023-01-15T00:41:49;100294.92;;;4.04;86.80
37066;BME280;22981;43.080;25.550;2023-01-15T00:44:17;100294.59;;;4.03;86.85
37066;BME280;22981;43.080;25.550;2023-01-15T00:46:45;100293.41;;;4.01;86.86
37066;BME280;22981;43.080;25.550;2023-01-15T00:49:13;100294.06;;;3.99;86.91
37066;BME280;22981;43.080;25.550;2023-01-15T00:51:40;100290.59;;;3.99;86.93
37066;BME280;22981;43.080;25.550;2023-01-15T00:54:08;100289.77;;;3.98;86.99
37066;BME280;22981;43.080;25.550;2023-01-15T00:56:36;100285.30;;;3.99;86.96
37066;BME280;22981;43.080;25.550;2023-01-15T00:59:04;100288.27;;;4.00;86.97
37066;BME280;22981;43.080;25.550;2023-01-15T01:01:32;100290.42;;;4.00;86.99
37066;BME280;22981;43.080;25.550;2023-01-15T01:03:59;100286.95;;;4.00;87.00
37066;BME280;22981;43.080;25.550;2023-01-15T01:06:27;100281.65;;;4.00;87.03
37066;BME280;22981;43.080;25.550;2023-01-15T01:08:55;100284.63;;;4.01;87.01
37066;BME280;22981;43.080;25.550;2023-01-15T01:11:24;100282.64;;;3.99;87.01
37066;BME280;22981;43.080;25.550;2023-01-15T01:13:53;100290.23;;;3.98;87.10
37066;BME280;22981;43.080;25.550;2023-01-15T01:16:29;100281.95;;;3.97;87.12
37066;BME280;22981;43.080;25.550;2023-01-15T01:18:59;100283.78;;;3.96;87.06
37066;BME280;22981;43.080;25.550;2023-01-15T01:21:29;100284.91;;;3.90;87.13
37066;BME280;22981;43.080;25.550;2023-01-15T01:24:00;100283.56;;;3.86;87.22
37066;BME280;22981;43.080;25.550;2023-01-15T01:26:28;100280.72;;;3.83;87.37
37066;BME280;22981;43.080;25.550;2023-01-15T01:28:56;100283.06;;;3.86;87.42
37066;BME280;22981;43.080;25.550;2023-01-15T01:31:24;100266.50;;;3.88;87.34
37066;BME280;22981;43.080;25.550;2023-01-15T01:33:58;100268.85;;;3.91;87.37
37066;BME280;22981;43.080;25.550;2023-01-15T01:36:28;100265.68;;;3.88;87.40
37066;BME280;22981;43.080;25.550;2023-01-15T01:38:56;100260.58;;;3.90;87.38
37066;BME280;22981;43.080;25.550;2023-01-15T01:41:24;100258.91;;;3.93;87.31
37066;BME280;22981;43.080;25.550;2023-01-15T01:46:24;100259.27;;;3.94;87.26
37066;BME280;22981;43.080;25.550;2023-01-15T01:48:54;100250.66;;;3.96;87.20
37066;BME280;22981;43.080;25.550;2023-01-15T01:51:24;100245.19;;;3.98;87.18
37066;BME280;22981;43.080;25.550;2023-01-15T01:53:53;100253.64;;;3.97;87.13
37066;BME280;22981;43.080;25.550;2023-01-15T01:56:21;100249.34;;;3.96;87.14
37066;BME280;22981;43.080;25.550;2023-01-15T01:58:51;100249.34;;;3.96;87.15
37066;BME280;22981;43.080;25.550;2023-01-15T02:01:22;100250.98;;;3.97;87.15
37066;BME280;22981;43.080;25.550;2023-01-15T02:03:52;100249.66;;;3.97;87.16
37066;BME280;22981;43.080;25.550;2023-01-15T02:06:21;100254.00;;;3.98;87.12
37066;BME280;22981;43.080;25.550;2023-01-15T02:08:50;100254.00;;;3.98;87.16
37066;BME280;22981;43.080;25.550;2023-01-15T02:11:22;100250.85;;;3.99;87.15
37066;BME280;22981;43.080;25.550;2023-01-15T02:13:57;100245.71;;;4.01;87.13
37066;BME280;22981;43.080;25.550;2023-01-15T02:27:09;100229.67;;;4.03;86.85
37066;BME280;22981;43.080;25.550;2023-01-15T02:32:14;100238.61;;;4.06;86.83
37066;BME280;22981;43.080;25.550;2023-01-15T02:34:47;100239.30;;;4.08;86.82
37066;BME280;22981;43.080;25.550;2023-01-15T02:37:17;100236.16;;;4.09;86.81
37066;BME280;22981;43.080;25.550;2023-01-15T02:39:46;100236.16;;;4.09;86.83
37066;BME280;22981;43.080;25.550;2023-01-15T02:42:16;100233.00;;;4.09;86.84
37066;BME280;22981;43.080;25.550;2023-01-15T02:44:47;100231.51;;;4.11;86.90
37066;BME280;22981;43.080;25.550;2023-01-15T02:47:18;100224.88;;;4.11;86.87
37066;BME280;22981;43.080;25.550;2023-01-15T02:49:46;100227.89;;;4.12;86.87
37066;BME280;22981;43.080;25.550;2023-01-15T02:52:18;100225.24;;;4.12;86.88
37066;BME280;22981;43.080;25.550;2023-01-15T02:54:51;100230.37;;;4.13;86.88
37066;BME280;22981;43.080;25.550;2023-01-15T02:57:16;100222.09;;;4.12;86.90
37066;BME280;22981;43.080;25.550;2023-01-15T02:59:46;100227.72;;;4.13;86.92
37066;BME280;22981;43.080;25.550;2023-01-15T03:02:24;100225.08;;;4.13;86.94
37066;BME280;22981;43.080;25.550;2023-01-15T03:05:10;100222.75;;;4.14;86.96
37066;BME280;22981;43.080;25.550;2023-01-15T03:07:40;100222.25;;;4.15;86.94
37066;BME280;22981;43.080;25.550;2023-01-15T03:10:09;100224.08;;;4.14;86.91
37066;BME280;22981;43.080;25.550;2023-01-15T03:12:40;100217.78;;;4.15;86.91
37066;BME280;22981;43.080;25.550;2023-01-15T03:15:13;100211.02;;;4.17;86.89
37066;BME280;22981;43.080;25.550;2023-01-15T03:17:55;100214.32;;;4.19;86.82
37066;BME280;22981;43.080;25.550;2023-01-15T03:20:27;100211.67;;;4.19;86.79
37066;BME280;22981;43.080;25.550;2023-01-15T03:23:04;100213.98;;;4.18;86.75
37066;BME280;22981;43.080;25.550;2023-01-15T03:25:32;100219.46;;;4.16;86.77
37066;BME280;22981;43.080;25.550;2023-01-15T03:28:01;100213.66;;;4.17;86.79
37066;BME280;22981;43.080;25.550;2023-01-15T03:30:29;100216.31;;;4.17;86.84
37066;BME280;22981;43.080;25.550;2023-01-15T03:32:57;100221.28;;;4.16;86.88
37066;BME280;22981;43.080;25.550;2023-01-15T03:38:17;100217.31;;;4.16;86.95
37066;BME280;22981;43.080;25.550;2023-01-15T03:49:54;100208.36;;;4.17;86.66
37066;BME280;22981;43.080;25.550;2023-01-15T03:55:17;100202.23;;;4.16;86.55
37066;BME280;22981;43.080;25.550;2023-01-15T03:58:09;100208.86;;;4.16;86.55
37066;BME280;22981;43.080;25.550;2023-01-15T04:00:26;100211.02;;;4.17;86.50
37066;BME280;22981;43.080;25.550;2023-01-15T04:02:56;100200.07;;;4.12;86.56
37066;BME280;22981;43.080;25.550;2023-01-15T04:05:25;100208.64;;;4.06;86.60
37066;BME280;22981;43.080;25.550;2023-01-15T04:07:56;100202.66;;;3.99;86.84
37066;BME280;22981;43.080;25.550;2023-01-15T04:10:25;100203.81;;;4.01;87.00
37066;BME280;22981;43.080;25.550;2023-01-15T04:12:52;100204.34;;;4.05;87.03
37066;BME280;22981;43.080;25.550;2023-01-15T04:15:20;100207.64;;;4.07;86.98
37066;BME280;22981;43.080;25.550;2023-01-15T04:17:47;100210.65;;;4.08;86.93
37066;BME280;22981;43.080;25.550;2023-01-15T04:20:15;100208.14;;;4.06;86.99
37066;BME280;22981;43.080;25.550;2023-01-15T04:22:42;100211.97;;;4.08;87.05
37066;BME280;22981;43.080;25.550;2023-01-15T04:25:10;100211.30;;;4.10;87.03
37066;BME280;22981;43.080;25.550;2023-01-15T04:27:37;100211.63;;;4.11;86.95
37066;BME280;22981;43.080;25.550;2023-01-15T04:30:06;100211.63;;;4.11;86.85
37066;BME280;22981;43.080;25.550;2023-01-15T04:32:34;100216.28;;;4.09;86.83
37066;BME280;22981;43.080;25.550;2023-01-15T04:35:01;100219.91;;;4.04;86.73
37066;BME280;22981;43.080;25.550;2023-01-15T04:37:29;100222.65;;;3.94;86.78
37066;BME280;22981;43.080;25.550;2023-01-15T04:39:56;100226.14;;;3.90;87.09
37066;BME280;22981;43.080;25.550;2023-01-15T04:42:24;100233.91;;;3.92;87.20
37066;BME280;22981;43.080;25.550;2023-01-15T04:45:10;100233.25;;;3.94;87.24
37066;BME280;22981;43.080;25.550;2023-01-15T04:47:37;100234.44;;;3.95;87.17
37066;BME280;22981;43.080;25.550;2023-01-15T04:50:05;100242.88;;;3.95;87.18
37066;BME280;22981;43.080;25.550;2023-01-15T04:52:33;100236.59;;;3.96;87.19
37066;BME280;22981;43.080;25.550;2023-01-15T04:55:00;100239.56;;;3.97;87.15
37066;BME280;22981;43.080;25.550;2023-01-15T04:57:28;100233.44;;;3.96;87.12
37066;BME280;22981;43.080;25.550;2023-01-15T04:59:55;100242.38;;;3.95;87.11
37066;BME280;22981;43.080;25.550;2023-01-15T05:02:23;100247.48;;;3.93;87.15
37066;BME280;22981;43.080;25.550;2023-01-15T05:04:51;100248.67;;;3.94;87.22
37066;BME280;22981;43.080;25.550;2023-01-15T05:07:19;100253.31;;;3.96;87.28
37066;BME280;22981;43.080;25.550;2023-01-15T05:09:46;100247.82;;;3.94;87.34
37066;BME280;22981;43.080;25.550;2023-01-15T05:12:15;100249.64;;;3.93;87.37
37066;BME280;22981;43.080;25.550;2023-01-15T05:14:43;100246.66;;;3.92;87.44
37066;BME280;22981;43.080;25.550;2023-01-15T05:17:10;100250.33;;;3.95;87.44
37066;BME280;22981;43.080;25.550;2023-01-15T05:19:38;100243.21;;;3.96;87.38
37066;BME280;22981;43.080;25.550;2023-01-15T05:22:06;100249.00;;;3.95;87.31
37066;BME280;22981;43.080;25.550;2023-01-15T05:24:33;100249.34;;;3.96;87.35
37066;BME280;22981;43.080;25.550;2023-01-15T05:27:01;100245.36;;;3.96;87.37
37066;BME280;22981;43.080;25.550;2023-01-15T05:29:30;100241.72;;;3.97;87.36
37066;BME280;22981;43.080;25.550;2023-01-15T05:31:58;100243.04;;;3.97;87.35
37066;BME280;22981;43.080;25.550;2023-01-15T05:34:25;100240.06;;;3.96;87.36
37066;BME280;22981;43.080;25.550;2023-01-15T05:36:53;100245.53;;;3.95;87.29
37066;BME280;22981;43.080;25.550;2023-01-15T05:39:20;100246.16;;;3.93;87.39
37066;BME280;22981;43.080;25.550;2023-01-15T05:41:48;100239.87;;;3.94;87.44
37066;BME280;22981;43.080;25.550;2023-01-15T05:44:21;100231.28;;;3.96;87.38
37066;BME280;22981;43.080;25.550;2023-01-15T05:46:50;100241.06;;;3.95;87.32
37066;BME280;22981;43.080;25.550;2023-01-15T05:49:21;100240.73;;;3.94;87.33
37066;BME280;22981;43.080;25.550;2023-01-15T05:51:49;100237.08;;;3.95;87.40
37066;BME280;22981;43.080;25.550;2023-01-15T05:54:20;100239.56;;;3.97;87.33
37066;BME280;22981;43.080;25.550;2023-01-15T05:56:48;100245.36;;;3.96;87.29
37066;BME280;22981;43.080;25.550;2023-01-15T05:59:21;100242.38;;;3.95;87.39
37066;BME280;22981;43.080;25.550;2023-01-15T06:01:49;100234.27;;;3.97;87.41
37066;BME280;22981;43.080;25.550;2023-01-15T06:04:17;100227.01;;;3.99;87.33
37066;BME280;22981;43.080;25.550;2023-01-15T06:06:48;100232.30;;;3.99;87.30
37066;BME280;22981;43.080;25.550;2023-01-15T06:09:17;100226.64;;;3.98;87.22
37066;BME280;22981;43.080;25.550;2023-01-15T06:11:44;100225.30;;;3.94;87.27
37066;BME280;22981;43.080;25.550;2023-01-15T06:14:12;100222.16;;;3.90;87.37
37066;BME280;22981;43.080;25.550;2023-01-15T06:16:40;100220.32;;;3.87;87.50
37066;BME280;22981;43.080;25.550;2023-01-15T06:19:10;100221.97;;;3.88;87.61
37066;BME280;22981;43.080;25.550;2023-01-15T06:21:38;100222.16;;;3.90;87.66
37066;BME280;22981;43.080;25.550;2023-01-15T06:24:06;100224.97;;;3.93;87.62
37066;BME280;22981;43.080;25.550;2023-01-15T06:26:33;100222.52;;;3.95;87.58
37066;BME280;22981;43.080;25.550;2023-01-15T06:29:01;100222.67;;;3.98;87.56
37066;BME280;22981;43.080;25.550;2023-01-15T06:31:29;100215.58;;;3.98;87.49
37066;BME280;22981;43.080;25.550;2023-01-15T06:33:57;100210.28;;;3.98;87.45
37066;BME280;22981;43.080;25.550;2023-01-15T06:36:26;100216.41;;;3.99;87.48
37066;BME280;22981;43.080;25.550;2023-01-15T06:38:54;100216.92;;;4.03;87.51
37066;BME280;22981;43.080;25.550;2023-01-15T06:41:23;100217.91;;;4.06;87.47
37066;BME280;22981;43.080;25.550;2023-01-15T06:44:15;100219.25;;;4.10;87.32
37066;BME280;22981;43.080;25.550;2023-01-15T06:47:04;100218.75;;;4.10;87.16
37066;BME280;22981;43.080;25.550;2023-01-15T06:49:47;100227.05;;;4.15;87.10
37066;BME280;22981;43.080;25.550;2023-01-15T06:52:14;100217.97;;;4.18;86.96
37066;BME280;22981;43.080;25.550;2023-01-15T06:54:42;100223.27;;;4.18;86.88
37066;BME280;22981;43.080;25.550;2023-01-15T06:57:10;100220.80;;;4.20;86.90
37066;BME280;22981;43.080;25.550;2023-01-15T06:59:37;100227.77;;;4.25;86.87
37066;BME280;22981;43.080;25.550;2023-01-15T07:02:05;100222.63;;;4.28;86.80
37066;BME280;22981;43.080;25.550;2023-01-15T07:04:33;100224.47;;;4.32;86.79
37066;BME280;22981;43.080;25.550;2023-01-15T07:07:01;100227.00;;;4.37;86.78
37066;BME280;22981;43.080;25.550;2023-01-15T07:09:29;100218.38;;;4.39;86.76
37066;BME280;22981;43.080;25.550;2023-01-15T07:11:57;100220.53;;;4.44;86.75
37066;BME280;22981;43.080;25.550;2023-01-15T07:14:26;100213.09;;;4.47;86.70
37066;BME280;22981;43.080;25.550;2023-01-15T07:16:54;100217.59;;;4.51;86.64
37066;BME280;22981;43.080;25.550;2023-01-15T07:19:21;100222.55;;;4.58;86.63
37066;BME280;22981;43.080;25.550;2023-01-15T07:21:49;100219.44;;;4.63;86.57
37066;BME280;22981;43.080;25.550;2023-01-15T07:24:17;100222.94;;;4.67;86.54
37066;BME280;22981;43.080;25.550;2023-01-15T07:26:45;100214.13;;;4.71;86.45
37066;BME280;22981;43.080;25.550;2023-01-15T07:29:13;100220.77;;;4.75;86.35
37066;BME280;22981;43.080;25.550;2023-01-15T07:31:41;100214.81;;;4.77;86.22
37066;BME280;22981;43.080;25.550;2023-01-15T07:34:09;100219.45;;;4.79;86.11
37066;BME280;22981;43.080;25.550;2023-01-15T07:36:37;100215.83;;;4.80;86.02
37066;BME280;22981;43.080;25.550;2023-01-15T07:39:05;100218.12;;;4.83;85.92
37066;BME280;22981;43.080;25.550;2023-01-15T07:41:34;100219.64;;;4.90;85.92
37066;BME280;22981;43.080;25.550;2023-01-15T07:44:20;100223.45;;;4.95;85.85
37066;BME280;22981;43.080;25.550;2023-01-15T07:47:17;100226.11;;;5.03;85.73
37066;BME280;22981;43.080;25.550;2023-01-15T07:50:04;100222.97;;;5.12;85.48
37066;BME280;22981;43.080;25.550;2023-01-15T07:52:33;100227.45;;;5.20;85.17
37066;BME280;22981;43.080;25.550;2023-01-15T07:55:00;100215.69;;;5.22;85.03
37066;BME280;22981;43.080;25.550;2023-01-15T07:57:29;100215.50;;;5.24;84.88
37066;BME280;22981;43.080;25.550;2023-01-15T07:59:56;100216.00;;;5.23;84.85
37066;BME280;22981;43.080;25.550;2023-01-15T08:02:24;100226.63;;;5.23;84.86
37066;BME280;22981;43.080;25.550;2023-01-15T08:04:52;100219.81;;;5.25;84.87
37066;BME280;22981;43.080;25.550;2023-01-15T08:07:20;100216.83;;;5.28;84.81
37066;BME280;22981;43.080;25.550;2023-01-15T08:09:47;100220.96;;;5.35;84.71
37066;BME280;22981;43.080;25.550;2023-01-15T08:12:15;100217.16;;;5.41;84.59
37066;BME280;22981;43.080;25.550;2023-01-15T08:15:01;100216.47;;;5.47;84.35
37066;BME280;22981;43.080;25.550;2023-01-15T08:17:43;100217.44;;;5.71;84.15
37066;BME280;22981;43.080;25.550;2023-01-15T08:20:20;100212.41;;;5.88;83.55
37066;BME280;22981;43.080;25.550;2023-01-15T08:22:48;100211.22;;;5.91;83.10
37066;BME280;22981;43.080;25.550;2023-01-15T08:25:18;100218.89;;;5.94;82.88
37066;BME280;22981;43.080;25.550;2023-01-15T08:27:46;100216.02;;;6.03;82.75
37066;BME280;22981;43.080;25.550;2023-01-15T08:30:17;100217.31;;;6.16;82.43
37066;BME280;22981;43.080;25.550;2023-01-15T08:32:45;100214.11;;;6.24;82.21
37066;BME280;22981;43.080;25.550;2023-01-15T08:35:12;100215.09;;;6.32;82.06
37066;BME280;22981;43.080;25.550;2023-01-15T08:37:40;100208.44;;;6.32;81.88
37066;BME280;22981;43.080;25.550;2023-01-15T08:40:10;100211.27;;;6.34;81.85
37066;BME280;22981;43.080;25.550;2023-01-15T08:42:38;100213.41;;;6.39;81.73
37066;BME280;22981;43.080;25.550;2023-01-15T08:45:07;100202.55;;;6.44;81.62
37066;BME280;22981;43.080;25.550;2023-01-15T08:47:34;100201.20;;;6.48;81.41
37066;BME280;22981;43.080;25.550;2023-01-15T08:50:04;100194.64;;;6.59;81.32
37066;BME280;22981;43.080;25.550;2023-01-15T08:52:31;100195.34;;;6.80;81.04
37066;BME280;22981;43.080;25.550;2023-01-15T08:54:59;100183.30;;;7.30;80.44
37066;BME280;22981;43.080;25.550;2023-01-15T08:57:26;100189.82;;;7.91;78.84
37066;BME280;22981;43.080;25.550;2023-01-15T08:59:54;100182.84;;;8.45;77.70
37066;BME280;22981;43.080;25.550;2023-01-15T09:02:22;100180.97;;;8.92;76.64
37066;BME280;22981;43.080;25.550;2023-01-15T09:04:49;100182.94;;;9.33;75.41
37066;BME280;22981;43.080;25.550;2023-01-15T09:07:18;100178.59;;;9.25;74.55
37066;BME280;22981;43.080;25.550;2023-01-15T09:09:45;100177.97;;;9.13;74.46
37066;BME280;22981;43.080;25.550;2023-01-15T09:12:13;100166.25;;;9.03;74.18
37066;BME280;22981;43.080;25.550;2023-01-15T09:14:40;100176.31;;;8.90;74.16
37066;BME280;22981;43.080;25.550;2023-01-15T09:17:08;100169.95;;;8.81;74.21
37066;BME280;22981;43.080;25.550;2023-01-15T09:19:35;100171.03;;;8.86;74.28
37066;BME280;22981;43.080;25.550;2023-01-15T09:22:03;100167.61;;;8.92;73.99
37066;BME280;22981;43.080;25.550;2023-01-15T09:24:30;100168.52;;;8.78;73.48
37066;BME280;22981;43.080;25.550;2023-01-15T09:26:58;100170.66;;;8.57;73.93
37066;BME280;22981;43.080;25.550;2023-01-15T09:29:26;100167.42;;;8.36;74.23
37066;BME280;22981;43.080;25.550;2023-01-15T09:31:53;100169.54;;;8.26;74.64
37066;BME280;22981;43.080;25.550;2023-01-15T09:34:21;100168.56;;;8.12;74.73
37066;BME280;22981;43.080;25.550;2023-01-15T09:36:48;100166.19;;;8.02;75.01
37066;BME280;22981;43.080;25.550;2023-01-15T09:39:16;100157.53;;;8.00;75.35
37066;BME280;22981;43.080;25.550;2023-01-15T09:50:40;100149.15;;;7.78;75.71
37066;BME280;22981;43.080;25.550;2023-01-15T09:55:52;100139.51;;;7.77;75.78
37066;BME280;22981;43.080;25.550;2023-01-15T09:58:34;100138.27;;;7.69;75.91
37066;BME280;22981;43.080;25.550;2023-01-15T10:00:51;100136.63;;;7.68;76.19
37066;BME280;22981;43.080;25.550;2023-01-15T10:03:42;100133.91;;;7.72;76.27
37066;BME280;22981;43.080;25.550;2023-01-15T10:11:50;100120.98;;;7.65;75.75
37066;BME280;22981;43.080;25.550;2023-01-15T10:17:28;100111.98;;;7.66;75.57
37066;BME280;22981;43.080;25.550;2023-01-15T10:19:58;100105.56;;;7.60;75.43
37066;BME280;22981;43.080;25.550;2023-01-15T10:25:41;100094.08;;;7.60;75.34
37066;BME280;22981;43.080;25.550;2023-01-15T10:28:15;100088.04;;;7.62;75.20
37066;BME280;22981;43.080;25.550;2023-01-15T10:30:46;100076.52;;;7.65;75.20
37066;BME280;22981;43.080;25.550;2023-01-15T10:36:09;100069.38;;;7.76;74.47
37066;BME280;22981;43.080;25.550;2023-01-15T10:41:38;100063.23;;;7.87;73.80
37066;BME280;22981;43.080;25.550;2023-01-15T10:46:59;100044.36;;;8.03;72.86
37066;BME280;22981;43.080;25.550;2023-01-15T10:49:25;100043.17;;;8.27;72.42
37066;BME280;22981;43.080;25.550;2023-01-15T10:51:57;100038.73;;;8.66;71.72
37066;BME280;22981;43.080;25.550;2023-01-15T10:54:34;100031.81;;;9.07;70.66
37066;BME280;22981;43.080;25.550;2023-01-15T10:57:14;100030.52;;;9.48;69.69
37066;BME280;22981;43.080;25.550;2023-01-15T10:59:49;100020.78;;;9.88;68.84
37066;BME280;22981;43.080;25.550;2023-01-15T11:05:11;100012.84;;;10.21;65.73
37066;BME280;22981;43.080;25.550;2023-01-15T11:07:41;100008.67;;;10.43;65.43
37066;BME280;22981;43.080;25.550;2023-01-15T11:10:11;100002.59;;;10.51;63.75
37066;BME280;22981;43.080;25.550;2023-01-15T11:13:01;99996.20;;;10.39;63.22
37066;BME280;22981;43.080;25.550;2023-01-15T11:15:46;99990.56;;;10.45;63.18
37066;BME280;22981;43.080;25.550;2023-01-15T11:18:41;99991.77;;;10.69;62.76
37066;BME280;22981;43.080;25.550;2023-01-15T11:21:28;99985.17;;;10.85;61.97
37066;BME280;22981;43.080;25.550;2023-01-15T11:23:58;99977.84;;;10.83;60.62
37066;BME280;22981;43.080;25.550;2023-01-15T11:26:31;99979.52;;;10.84;60.63
37066;BME280;22981;43.080;25.550;2023-01-15T11:29:10;99969.02;;;10.69;60.46
37066;BME280;22981;43.080;25.550;2023-01-15T11:31:37;99972.59;;;10.78;60.98
37066;BME280;22981;43.080;25.550;2023-01-15T11:34:13;99965.41;;;10.66;60.74
37066;BME280;22981;43.080;25.550;2023-01-15T11:36:35;99968.02;;;10.37;61.04
37066;BME280;22981;43.080;25.550;2023-01-15T11:39:02;99961.78;;;10.10;61.64
37066;BME280;22981;43.080;25.550;2023-01-15T11:41:32;99956.43;;;10.23;61.65
37066;BME280;22981;43.080;25.550;2023-01-15T11:44:20;99952.75;;;10.24;60.89
37066;BME280;22981;43.080;25.550;2023-01-15T11:47:17;99953.75;;;10.10;61.44
37066;BME280;22981;43.080;25.550;2023-01-15T11:50:12;99952.30;;;10.00;61.33
37066;BME280;22981;43.080;25.550;2023-01-15T11:52:54;99944.09;;;10.22;61.27
37066;BME280;22981;43.080;25.550;2023-01-15T11:55:25;99937.22;;;10.43;61.36
37066;BME280;22981;43.080;25.550;2023-01-15T11:57:53;99932.97;;;10.71;60.71
37066;BME280;22981;43.080;25.550;2023-01-15T12:00:31;99929.86;;;10.74;60.16
37066;BME280;22981;43.080;25.550;2023-01-15T12:03:21;99934.06;;;10.86;59.64
37066;BME280;22981;43.080;25.550;2023-01-15T12:05:35;99928.00;;;10.82;59.76
37066;BME280;22981;43.080;25.550;2023-01-15T12:08:16;99919.25;;;10.77;60.33
37066;BME280;22981;43.080;25.550;2023-01-15T12:10:36;99921.19;;;10.86;59.43
37066;BME280;22981;43.080;25.550;2023-01-15T12:16:04;99917.32;;;10.68;59.35
37066;BME280;22981;43.080;25.550;2023-01-15T12:18:37;99908.58;;;10.57;59.83
37066;BME280;22981;43.080;25.550;2023-01-15T12:29:55;99891.33;;;11.11;59.01
37066;BME280;22981;43.080;25.550;2023-01-15T12:32:25;99890.91;;;10.85;59.13
37066;BME280;22981;43.080;25.550;2023-01-15T12:35:09;99880.56;;;10.95;59.54
37066;BME280;22981;43.080;25.550;2023-01-15T12:37:43;99886.26;;;10.90;59.19
37066;BME280;22981;43.080;25.550;2023-01-15T12:40:31;99887.34;;;10.69;59.68
37066;BME280;22981;43.080;25.550;2023-01-15T12:42:57;99882.32;;;10.63;59.98
37066;BME280;22981;43.080;25.550;2023-01-15T12:45:50;99879.89;;;10.84;59.92
37066;BME280;22981;43.080;25.550;2023-01-15T12:48:42;99873.21;;;11.07;59.14
37066;BME280;22981;43.080;25.550;2023-01-15T12:51:12;99876.88;;;11.19;58.72
37066;BME280;22981;43.080;25.550;2023-01-15T12:53:50;99874.61;;;11.16;58.66
37066;BME280;22981;43.080;25.550;2023-01-15T12:56:36;99871.00;;;11.13;59.23
37066;BME280;22981;43.080;25.550;2023-01-15T13:01:51;99851.06;;;11.24;58.81
37066;BME280;22981;43.080;25.550;2023-01-15T13:04:36;99854.23;;;11.46;59.00
37066;BME280;22981;43.080;25.550;2023-01-15T13:07:11;99847.87;;;11.72;58.56
37066;BME280;22981;43.080;25.550;2023-01-15T13:09:43;99849.33;;;11.91;58.21
37066;BME280;22981;43.080;25.550;2023-01-15T13:12:13;99849.39;;;11.93;58.15
37066;BME280;22981;43.080;25.550;2023-01-15T13:14:42;99840.25;;;12.01;57.99
37066;BME280;22981;43.080;25.550;2023-01-15T13:17:40;99841.64;;;11.94;57.87
37066;BME280;22981;43.080;25.550;2023-01-15T13:20:13;99832.63;;;11.98;57.92
37066;BME280;22981;43.080;25.550;2023-01-15T13:22:41;99839.31;;;12.14;57.57
37066;BME280;22981;43.080;25.550;2023-01-15T13:25:20;99837.08;;;12.20;57.44
37066;BME280;22981;43.080;25.550;2023-01-15T13:27:55;99827.63;;;12.26;57.34
37066;BME280;22981;43.080;25.550;2023-01-15T13:33:24;99820.56;;;11.98;57.51
37066;BME280;22981;43.080;25.550;2023-01-15T13:35:53;99820.85;;;11.99;57.51
37066;BME280;22981;43.080;25.550;2023-01-15T13:38:24;99810.05;;;11.81;57.78
37066;BME280;22981;43.080;25.550;2023-01-15T13:40:54;99809.75;;;11.79;57.96
37066;BME280;22981;43.080;25.550;2023-01-15T13:43:29;99807.65;;;11.88;57.88
37066;BME280;22981;43.080;25.550;2023-01-15T13:45:56;99799.17;;;11.91;57.69
37066;BME280;22981;43.080;25.550;2023-01-15T13:51:30;99793.87;;;11.94;57.34
37066;BME280;22981;43.080;25.550;2023-01-15T13:53:59;99787.69;;;11.93;57.48
37066;BME280;22981;43.080;25.550;2023-01-15T13:56:30;99789.26;;;11.92;57.52
37066;BME280;22981;43.080;25.550;2023-01-15T13:59:02;99792.00;;;11.94;57.21
37066;BME280;22981;43.080;25.550;2023-01-15T14:01:33;99784.37;;;11.82;56.86
37066;BME280;22981;43.080;25.550;2023-01-15T14:04:06;99783.12;;;11.85;56.93
37066;BME280;22981;43.080;25.550;2023-01-15T14:06:40;99786.73;;;11.81;56.67
37066;BME280;22981;43.080;25.550;2023-01-15T14:09:14;99781.73;;;11.75;56.61
37066;BME280;22981;43.080;25.550;2023-01-15T14:17:43;99778.66;;;11.72;56.30
37066;BME280;22981;43.080;25.550;2023-01-15T14:20:20;99779.69;;;11.62;56.52
37066;BME280;22981;43.080;25.550;2023-01-15T14:26:08;99783.12;;;11.44;56.41
37066;BME280;22981;43.080;25.550;2023-01-15T14:33:33;99790.94;;;10.91;57.34
37066;BME280;22981;43.080;25.550;2023-01-15T14:36:10;99783.09;;;10.74;57.43
37066;BME280;22981;43.080;25.550;2023-01-15T14:38:44;99786.77;;;10.57;57.75
37066;BME280;22981;43.080;25.550;2023-01-15T14:41:09;99786.66;;;10.32;57.74
37066;BME280;22981;43.080;25.550;2023-01-15T14:43:40;99784.50;;;10.12;58.25
37066;BME280;22981;43.080;25.550;2023-01-15T14:46:27;99787.11;;;9.83;58.65
37066;BME280;22981;43.080;25.550;2023-01-15T14:48:54;99790.70;;;9.52;59.37
37066;BME280;22981;43.080;25.550;2023-01-15T14:51:44;99794.78;;;9.22;60.07